Horizon — WDH3298 — position and weather

sailwx.info

Track history (hours):
 
Tides and Currents Weather Stations Pressure Air Temp Water Temp Dewpoint Dewpoint Depression Visibility Wind Speed Wind Dir Waves Ship Positions

Horizon

Owner: Horizon Charters Inc., San Diego, CA. More information available from US FCC via Universal Licensing System and Coast Guard Vessel Documentation Center.

Last reported at 2018-Apr-23 12:19 UTC. Time now 2018-Apr-24 07:06 UTC.
Position N 32°43' W 117°20'.

Length 22 m.

Type: Diving. MMSI: 338776000.

Date/timePositionNaut miles runAvg speedWind from/ knotsBaromVisibWave heightAir tempDewpointWater temp
2018-Apr-23 12:19N 32°43' W 117°20'310.1
2018-Apr-23 12:01N 32°45' W 117°23'5 9.8
2018-Apr-23 11:30N 32°48' W 117°27'5 9.9
2018-Apr-23 11:00N 32°51' W 117°32'5 9.9
2018-Apr-23 10:30N 32°55' W 117°36'5 9.8
2018-Apr-23 10:00N 32°58' W 117°40'5 9.7
2018-Apr-23 09:30N 33°01' W 117°45'5 9.8
2018-Apr-23 09:00N 33°04' W 117°49'510.0
2018-Apr-23 08:30N 33°07' W 117°54'5 9.8
2018-Apr-23 08:00N 33°09' W 117°59'5 9.9
2018-Apr-23 07:30N 33°13' W 118°04'5 9.9
2018-Apr-23 07:00N 33°16' W 118°08'510.0
2018-Apr-23 06:30N 33°19' W 118°13'510.2
2018-Apr-23 06:00N 33°22' W 118°18'6 9.9
2018-Apr-23 05:22N 33°26' W 118°23'4 9.9
2018-Apr-23 05:00N 33°28' W 118°27'3 6.6
2018-Apr-23 04:29N 33°28' W 118°31'0 0.0
2018-Apr-23 04:00N 33°28' W 118°31'0 0.0
2018-Apr-23 03:27N 33°28' W 118°31'0 0.0
2018-Apr-23 02:53N 33°28' W 118°31'0 0.0
2018-Apr-23 01:40N 33°28' W 118°31'1 5.0
2018-Apr-23 01:28N 33°27' W 118°30'0 0.2
2018-Apr-23 01:00N 33°27' W 118°30'0 0.0
2018-Apr-23 00:29N 33°27' W 118°30'0 0.0
2018-Apr-22 23:59N 33°27' W 118°30'0 0.0
2018-Apr-22 23:30N 33°27' W 118°30'0 0.0
2018-Apr-22 23:01N 33°27' W 118°30'1 1.4
2018-Apr-22 22:30N 33°28' W 118°31'0 0.1
2018-Apr-22 22:00N 33°28' W 118°31'0 0.0
2018-Apr-22 21:28N 33°28' W 118°31'0 0.0
2018-Apr-22 21:00N 33°28' W 118°31'0 0.0
2018-Apr-22 20:30N 33°28' W 118°31'0 0.0
2018-Apr-22 19:57N 33°28' W 118°31'0 0.0
2018-Apr-22 19:28N 33°28' W 118°31'0 0.7
2018-Apr-22 18:47N 33°27' W 118°31'1 0.5
2018-Apr-22 16:36N 33°27' W 118°29'0 0.1
2018-Apr-22 16:29N 33°27' W 118°29'0 0.0
2018-Apr-22 16:01N 33°27' W 118°29'0 0.0
2018-Apr-22 15:16N 33°27' W 118°29'0 0.0
2018-Apr-22 14:48N 33°27' W 118°29'0 0.0
2018-Apr-22 14:30N 33°27' W 118°29'0 0.1
2018-Apr-22 14:00N 33°27' W 118°29'1 1.0
2018-Apr-22 13:30N 33°27' W 118°30'0 0.0
2018-Apr-22 12:59N 33°27' W 118°30'0 0.0
2018-Apr-22 12:29N 33°27' W 118°30'0 0.0
2018-Apr-22 12:00N 33°27' W 118°30'0 0.0
2018-Apr-22 11:27N 33°27' W 118°30'0 0.0
2018-Apr-22 10:38N 33°27' W 118°30'0 0.4
2018-Apr-22 10:30N 33°27' W 118°30'0 0.0
2018-Apr-22 09:58N 33°27' W 118°30'0 0.0
2018-Apr-22 09:29N 33°27' W 118°30'0 0.0
2018-Apr-22 08:59N 33°27' W 118°30'0 0.0
2018-Apr-22 08:30N 33°27' W 118°30'0 0.0
2018-Apr-22 08:00N 33°27' W 118°30'0 0.0
2018-Apr-22 07:30N 33°27' W 118°30'0 0.0
2018-Apr-22 07:00N 33°27' W 118°30'0 0.0
2018-Apr-22 06:30N 33°27' W 118°30'0 0.0
2018-Apr-22 05:55N 33°27' W 118°30'0 0.1
2018-Apr-22 05:14N 33°27' W 118°30'0 0.0
2018-Apr-22 05:00N 33°27' W 118°30'0 0.6
2018-Apr-22 04:30N 33°27' W 118°30'510.1
2018-Apr-22 04:00N 33°30' W 118°35'510.0
2018-Apr-22 03:30N 33°30' W 118°41'5 9.9
2018-Apr-22 03:00N 33°30' W 118°47'510.3
2018-Apr-22 02:30N 33°29' W 118°53'510.2
2018-Apr-22 02:01N 33°29' W 118°59'2 0.7
2018-Apr-21 22:50N 33°29' W 119°02'0 0.0
2018-Apr-21 20:07N 33°29' W 119°02'0 2.5
2018-Apr-21 19:56N 33°29' W 119°02'0 0.0
2018-Apr-21 14:36N 33°29' W 119°02'1 7.2
2018-Apr-21 14:24N 33°29' W 119°03'2 0.3
2018-Apr-21 07:13N 33°28' W 119°01'210.2
2018-Apr-21 07:00N 33°29' W 118°59'510.0
2018-Apr-21 06:30N 33°29' W 118°53'18 6.0
2018-Apr-21 03:35N 33°28' W 118°32'0 0.1
2018-Apr-21 03:28N 33°28' W 118°32'0 0.0
2018-Apr-21 03:00N 33°28' W 118°32'8 5.6
2018-Apr-21 01:30N 33°25' W 118°22'27 2.0
2018-Apr-20 11:51N 33°07' W 117°58'3 9.3
2018-Apr-20 11:30N 33°05' W 117°55'5 9.2
2018-Apr-20 11:00N 33°02' W 117°51'5 9.2
2018-Apr-20 10:30N 32°58' W 117°47'6 9.1
2018-Apr-20 09:47N 32°54' W 117°41'3 9.1
2018-Apr-20 09:29N 32°53' W 117°38'4 9.0
2018-Apr-20 09:00N 32°51' W 117°34'4 9.1
2018-Apr-20 08:30N 32°48' W 117°30'5 9.0
2018-Apr-20 08:00N 32°45' W 117°26'  
Track history (hours):
 
Tides and Currents Weather Stations Pressure Air Temp Water Temp Dewpoint Dewpoint Depression Visibility Wind Speed Wind Dir Waves Ship Positions

Horizon

Owner: Horizon Charters Inc., San Diego, CA. More information available from US FCC via Universal Licensing System and Coast Guard Vessel Documentation Center.

Last reported at 2018-Apr-23 12:19 UTC. Time now 2018-Apr-24 07:06 UTC.
Position N 32°43' W 117°20'.

Length 22 m.

Type: Diving. MMSI: 338776000.

Date/timePositionNaut miles runAvg speedWind from/ knotsBaromVisibWave heightAir tempDewpointWater temp
2018-Apr-23 12:19N 32°43' W 117°20'310.1
2018-Apr-23 12:01N 32°45' W 117°23'5 9.8
2018-Apr-23 11:30N 32°48' W 117°27'5 9.9
2018-Apr-23 11:00N 32°51' W 117°32'5 9.9
2018-Apr-23 10:30N 32°55' W 117°36'5 9.8
2018-Apr-23 10:00N 32°58' W 117°40'5 9.7
2018-Apr-23 09:30N 33°01' W 117°45'5 9.8
2018-Apr-23 09:00N 33°04' W 117°49'510.0
2018-Apr-23 08:30N 33°07' W 117°54'5 9.8
2018-Apr-23 08:00N 33°09' W 117°59'5 9.9
2018-Apr-23 07:30N 33°13' W 118°04'5 9.9
2018-Apr-23 07:00N 33°16' W 118°08'510.0
2018-Apr-23 06:30N 33°19' W 118°13'510.2
2018-Apr-23 06:00N 33°22' W 118°18'6 9.9
2018-Apr-23 05:22N 33°26' W 118°23'4 9.9
2018-Apr-23 05:00N 33°28' W 118°27'3 6.6
2018-Apr-23 04:29N 33°28' W 118°31'0 0.0
2018-Apr-23 04:00N 33°28' W 118°31'0 0.0
2018-Apr-23 03:27N 33°28' W 118°31'0 0.0
2018-Apr-23 02:53N 33°28' W 118°31'0 0.0
2018-Apr-23 01:40N 33°28' W 118°31'1 5.0
2018-Apr-23 01:28N 33°27' W 118°30'0 0.2
2018-Apr-23 01:00N 33°27' W 118°30'0 0.0
2018-Apr-23 00:29N 33°27' W 118°30'0 0.0
2018-Apr-22 23:59N 33°27' W 118°30'0 0.0
2018-Apr-22 23:30N 33°27' W 118°30'0 0.0
2018-Apr-22 23:01N 33°27' W 118°30'1 1.4
2018-Apr-22 22:30N 33°28' W 118°31'0 0.1
2018-Apr-22 22:00N 33°28' W 118°31'0 0.0
2018-Apr-22 21:28N 33°28' W 118°31'0 0.0
2018-Apr-22 21:00N 33°28' W 118°31'0 0.0
2018-Apr-22 20:30N 33°28' W 118°31'0 0.0
2018-Apr-22 19:57N 33°28' W 118°31'0 0.0
2018-Apr-22 19:28N 33°28' W 118°31'0 0.7
2018-Apr-22 18:47N 33°27' W 118°31'1 0.5
2018-Apr-22 16:36N 33°27' W 118°29'0 0.1
2018-Apr-22 16:29N 33°27' W 118°29'0 0.0
2018-Apr-22 16:01N 33°27' W 118°29'0 0.0
2018-Apr-22 15:16N 33°27' W 118°29'0 0.0
2018-Apr-22 14:48N 33°27' W 118°29'0 0.0
2018-Apr-22 14:30N 33°27' W 118°29'0 0.1
2018-Apr-22 14:00N 33°27' W 118°29'1 1.0
2018-Apr-22 13:30N 33°27' W 118°30'0 0.0
2018-Apr-22 12:59N 33°27' W 118°30'0 0.0
2018-Apr-22 12:29N 33°27' W 118°30'0 0.0
2018-Apr-22 12:00N 33°27' W 118°30'0 0.0
2018-Apr-22 11:27N 33°27' W 118°30'0 0.0
2018-Apr-22 10:38N 33°27' W 118°30'0 0.4
2018-Apr-22 10:30N 33°27' W 118°30'0 0.0
2018-Apr-22 09:58N 33°27' W 118°30'0 0.0
2018-Apr-22 09:29N 33°27' W 118°30'0 0.0
2018-Apr-22 08:59N 33°27' W 118°30'0 0.0
2018-Apr-22 08:30N 33°27' W 118°30'0 0.0
2018-Apr-22 08:00N 33°27' W 118°30'0 0.0
2018-Apr-22 07:30N 33°27' W 118°30'0 0.0
2018-Apr-22 07:00N 33°27' W 118°30'0 0.0
2018-Apr-22 06:30N 33°27' W 118°30'0 0.0
2018-Apr-22 05:55N 33°27' W 118°30'0 0.1
2018-Apr-22 05:14N 33°27' W 118°30'0 0.0
2018-Apr-22 05:00N 33°27' W 118°30'0 0.6
2018-Apr-22 04:30N 33°27' W 118°30'510.1
2018-Apr-22 04:00N 33°30' W 118°35'510.0
2018-Apr-22 03:30N 33°30' W 118°41'5 9.9
2018-Apr-22 03:00N 33°30' W 118°47'510.3
2018-Apr-22 02:30N 33°29' W 118°53'510.2
2018-Apr-22 02:01N 33°29' W 118°59'2 0.7
2018-Apr-21 22:50N 33°29' W 119°02'0 0.0
2018-Apr-21 20:07N 33°29' W 119°02'0 2.5
2018-Apr-21 19:56N 33°29' W 119°02'0 0.0
2018-Apr-21 14:36N 33°29' W 119°02'1 7.2
2018-Apr-21 14:24N 33°29' W 119°03'2 0.3
2018-Apr-21 07:13N 33°28' W 119°01'210.2
2018-Apr-21 07:00N 33°29' W 118°59'510.0
2018-Apr-21 06:30N 33°29' W 118°53'18 6.0
2018-Apr-21 03:35N 33°28' W 118°32'0 0.1
2018-Apr-21 03:28N 33°28' W 118°32'0 0.0
2018-Apr-21 03:00N 33°28' W 118°32'8 5.6
2018-Apr-21 01:30N 33°25' W 118°22'27 2.0
2018-Apr-20 11:51N 33°07' W 117°58'3 9.3
2018-Apr-20 11:30N 33°05' W 117°55'5 9.2
2018-Apr-20 11:00N 33°02' W 117°51'5 9.2
2018-Apr-20 10:30N 32°58' W 117°47'6 9.1
2018-Apr-20 09:47N 32°54' W 117°41'3 9.1
2018-Apr-20 09:29N 32°53' W 117°38'4 9.0
2018-Apr-20 09:00N 32°51' W 117°34'4 9.1
2018-Apr-20 08:30N 32°48' W 117°30'5 9.0
2018-Apr-20 08:00N 32°45' W 117°26'  

Dump ship's entire track history